Hotchkiss, CO

4:14 AM MDT on October 25, 2014 (GMT -0600)
Rogers Mesa CO | Change Station
CLOSE
Current Station
Personal Weather Station
Location: Rogers Mesa, CO
Elevation: 5794 ft
Nearby Weather Stations

Elev 5794 ft 38.81 °N, 107.77 °W | Updated 28 seconds ago

Clear
Clear
39.8 °F
Feels Like 40 °F
N
0.0
Wind Variable Wind from NW
Gusts 0.0 mph

Today
High -- | Low -- °F
--% Chance of Precip.
Yesterday
High -- | Low -- °F
Precip. -- in
7:30 AM 6:18 PM
New Moon, 2% visible
Pressure 30.31 in
Visibility 10.0 miles
Clouds Clear
Windchill 40 °F
Dew Point 30 °F
Humidity 67%
Rainfall 0.00 in
Snow Depth Not available.
UV 0 out of 12
Pollen 1.80 out of 12
Air Quality Not available.
Flu Activity Sporadic
METAR KAJZ 250935Z AUTO 13003KT 10SM CLR 07/M01 A3031 RMK AO2 T00741015

More Conditions Fewer Conditions

Pressure 30.31 in
Visibility 10.0 miles
Clouds Clear
Windchill 40 °F
Dew Point 30 °F
Humidity 67%
Rainfall 0.00 in
Snow Depth Not available.
UV 0 out of 12
Pollen 1.80 out of 12
Air Quality Not available.
Flu Activity Sporadic
METAR KAJZ 250935Z AUTO 13003KT 10SM CLR 07/M01 A3031 RMK AO2 T00741015

More Conditions Fewer Conditions

10-Day Weather Forecast

Almanac

Astronomy

Oct. 25, 2014 Rise Set
Actual Time 7:30 AM MDT 6:18 PM MDT
Civil Twilight 7:03 AM MDT 6:46 PM MDT
Nautical Twilight 6:32 AM MDT 7:17 PM MDT
Astronomical Twilight 6:01 AM MDT 7:48 PM MDT
Moon 9:11 AM MDT 7:45 PM MDT
Length of Visible Light 11h 42m
Length of Day
10h 48m
Tomorrow will be 2m 19s shorter.
New Moon, 2% of the Moon is Illuminated
Today
New Moon
Oct 30
First Quarter
Nov 6
Full
Nov 14
Last Quarter
Nov 22
New

Today's Extremes

State Highs State Lows

Community

WunderPhotos

Upload Photos

1,764,796 photos uploaded!

Nearby

Snow Depth

Station Depth Elevation
Park Reservoir 1 in 9960 ft
Overland Reservoir 0 in 9880 ft
McClure Pass 1 in 9500 ft
North Lost Trail 0 in 9200 ft
Schofield Pass 0 in 10700 ft

Earthquake Activity

City Distance Mag. Time & Date
No recent earthquake activity has been reported nearby.
Minimum magnitude displayed is 2.5.

Coastal Water Temperatures

Place Temperature
No Stations Reporting

Nearby Weather Stations